Time;durP1;ratioP1;P1;durP2;ratioP2;P2;SDS_P1;SDS_P2;PMS_P1;PMS_P2;Temp;Humidity;BMP_temperature;BMP_pressure;BME280_temperature;BME280_humidity;BME280_pressure;Samples;Min_cycle;Max_cycle;Signal;HPM_P1;HPM_P2
2021/07/15 00:00:11;;;;;;;46.75;24.33;;;;;;;20.81;72.78;99488.75;5094069;28;20081;-71
2021/07/15 00:02:37;;;;;;;45.50;23.98;;;;;;;20.72;72.85;99490.72;5093717;28;20043;-71
2021/07/15 00:05:11;;;;;;;46.65;25.50;;;;;;;20.62;73.21;99485.63;5093538;28;20177;-71
2021/07/15 00:07:38;;;;;;;47.03;25.35;;;;;;;20.58;73.50;99481.63;5093718;28;20042;-71
2021/07/15 00:10:28;;;;;;;42.15;24.65;;;;;;;20.58;73.65;99478.13;5093408;28;20055;-70
2021/07/15 00:12:54;;;;;;;38.78;24.33;;;;;;;20.55;73.65;99470.44;5093364;28;20461;-70
2021/07/15 00:15:24;;;;;;;41.72;24.15;;;;;;;20.51;73.73;99475.34;5091930;28;20071;-69
2021/07/15 00:17:50;;;;;;;40.33;25.00;;;;;;;20.48;74.22;99479.25;5093064;28;20086;-69
2021/07/15 00:20:17;;;;;;;39.83;24.25;;;;;;;20.45;74.31;99471.56;5093525;28;20489;-71
2021/07/15 00:22:44;;;;;;;40.40;24.50;;;;;;;20.47;74.41;99468.69;5093245;28;20059;-71
2021/07/15 00:25:16;;;;;;;41.35;22.73;;;;;;;20.49;74.19;99472.03;5093523;28;20082;-69
2021/07/15 00:27:42;;;;;;;37.80;22.83;;;;;;;20.47;74.44;99474.91;5093056;28;20074;-69
2021/07/15 00:30:13;;;;;;;38.97;23.67;;;;;;;20.49;74.49;99467.47;5093484;28;20084;-69
2021/07/15 00:32:39;;;;;;;42.33;25.13;;;;;;;20.45;74.81;99455.47;5093476;28;20134;-70
2021/07/15 00:35:07;;;;;;;41.67;26.05;;;;;;;20.39;75.05;99466.94;5093454;28;20040;-69
2021/07/15 00:37:32;;;;;;;;;;;;;;;20.31;75.24;99454.47;5103390;28;20096;-70
2021/07/15 00:39:58;;;;;;;42.97;25.67;;;;;;;20.26;75.50;99456.03;5112759;28;20505;-71
2021/07/15 00:42:24;;;;;;;45.05;27.65;;;;;;;20.16;76.01;99459.84;5113167;28;20046;-71
2021/07/15 00:44:50;;;;;;;42.97;27.42;;;;;;;20.09;76.50;99450.00;5113136;28;20048;-70
2021/07/15 00:47:16;;;;;;;49.65;28.00;;;;;;;20.03;77.16;99447.06;5113444;28;20123;-69
2021/07/15 00:49:41;;;;;;;47.00;28.15;;;;;;;20.05;77.37;99444.22;5112925;28;20050;-72
2021/07/15 00:52:11;;;;;;;51.15;28.33;;;;;;;20.08;77.52;99448.38;5113230;28;20043;-70
2021/07/15 00:54:43;;;;;;;48.22;26.65;;;;;;;20.10;77.17;99452.53;5111701;28;20572;-72
2021/07/15 00:57:09;;;;;;;47.05;27.60;;;;;;;20.09;77.26;99448.19;5113470;28;20488;-70
2021/07/15 00:59:36;;;;;;;52.92;27.70;;;;;;;20.10;77.23;99449.84;5113185;28;20048;-75
2021/07/15 01:02:02;;;;;;;63.17;31.03;;;;;;;20.09;77.39;99444.66;5113278;28;20108;-70
2021/07/15 01:04:29;;;;;;;46.90;27.15;;;;;;;20.07;77.24;99442.16;5113283;28;20047;-68
2021/07/15 01:06:55;;;;;;;47.72;26.23;;;;;;;20.05;76.96;99444.22;5112741;28;20044;-70
2021/07/15 01:09:21;;;;;;;53.30;27.73;;;;;;;19.98;77.26;99444.09;5112996;28;20058;-70
2021/07/15 01:11:58;;;;;;;55.72;27.45;;;;;;;19.97;76.82;99441.63;5112664;28;20046;-69
2021/07/15 01:14:28;;;;;;;49.25;27.80;;;;;;;20.00;76.46;99451.97;5113023;28;20492;-71
2021/07/15 01:17:01;;;;;;;44.85;26.00;;;;;;;20.05;76.22;99452.25;5111618;28;20091;-71
2021/07/15 01:19:42;;;;;;;48.08;26.50;;;;;;;20.09;75.74;99450.88;5111507;28;20694;-70
2021/07/15 01:22:15;;;;;;;53.17;27.45;;;;;;;20.13;75.62;99452.16;5112689;28;20052;-71
2021/07/15 01:25:15;;;;;;;60.63;28.35;;;;;;;20.20;75.33;99441.50;5111482;28;20035;-71
2021/07/15 01:27:49;;;;;;;46.95;26.75;;;;;;;20.17;74.96;99447.25;5112353;28;20047;-70
2021/07/15 01:30:20;;;;;;;45.90;25.35;;;;;;;20.15;75.03;99444.75;5111493;28;20065;-70
2021/07/15 01:32:46;;;;;;;49.30;27.25;;;;;;;20.12;74.97;99442.44;5112285;28;20040;-69
2021/07/15 01:35:14;;;;;;;52.83;26.67;;;;;;;20.14;75.00;99442.25;5112826;28;20510;-70
2021/07/15 01:37:43;;;;;;;46.08;26.08;;;;;;;20.16;74.82;99427.63;5105770;28;20043;-73
2021/07/15 01:40:10;;;;;;;54.10;27.23;;;;;;;20.18;74.66;99428.25;5112520;28;20039;-72
2021/07/15 01:42:37;;;;;;;50.72;25.88;;;;;;;20.22;74.24;99441.31;5111335;28;20107;-71
2021/07/15 01:45:04;;;;;;;62.03;27.88;;;;;;;20.19;74.43;99440.66;5112453;28;20039;-69
2021/07/15 01:47:30;;;;;;;53.90;26.25;;;;;;;20.18;74.42;99439.00;5112668;28;20035;-70
2021/07/15 01:49:58;;;;;;;52.10;28.65;;;;;;;20.19;74.39;99440.66;5111093;28;20047;-71
2021/07/15 01:52:25;;;;;;;60.30;28.38;;;;;;;20.18;74.59;99438.16;5111285;28;20044;-72
2021/07/15 01:54:52;;;;;;;57.60;27.88;;;;;;;20.19;74.38;99437.97;5112249;28;20043;-69
2021/07/15 01:57:22;;;;;;;52.03;26.05;;;;;;;20.21;74.66;99443.16;5112453;28;20054;-69
2021/07/15 01:59:48;;;;;;;60.20;27.58;;;;;;;20.22;74.56;99442.13;5110769;28;20515;-69
2021/07/15 02:02:15;;;;;;;51.00;25.83;;;;;;;20.28;74.42;99432.50;5094116;28;20176;-70
2021/07/15 02:04:41;;;;;;;51.35;27.10;;;;;;;20.32;74.25;99440.00;5090083;28;20048;-71
2021/07/15 02:07:07;;;;;;;54.45;28.25;;;;;;;20.35;74.22;99436.13;5073085;28;20129;-71
2021/07/15 02:09:35;;;;;;;53.13;29.70;;;;;;;20.38;73.95;99421.47;5090022;28;20512;-71
2021/07/15 02:12:01;;;;;;;51.03;29.65;;;;;;;20.41;73.69;99421.09;5090495;28;20131;-72
2021/07/15 02:14:27;;;;;;;62.05;29.25;;;;;;;20.44;73.73;99426.91;5091570;28;20459;-70
2021/07/15 02:16:56;;;;;;;62.35;29.55;;;;;;;20.44;73.80;99424.22;5090632;28;20532;-71
2021/07/15 02:19:23;;;;;;;64.43;29.67;;;;;;;20.46;73.79;99430.25;5091647;28;20044;-70
2021/07/15 02:21:49;;;;;;;66.70;29.77;;;;;;;20.47;73.76;99436.44;5091312;28;20044;-70
2021/07/15 02:24:20;;;;;;;52.42;28.45;;;;;;;20.50;73.59;99439.59;5091498;28;20278;-71
2021/07/15 02:26:47;;;;;;;56.13;28.55;;;;;;;20.53;73.53;99436.50;5091244;28;20039;-71
2021/07/15 02:29:12;;;;;;;60.55;30.48;;;;;;;20.57;73.50;99444.22;5090557;28;20044;-69
2021/07/15 02:32:07;;;;;;;66.32;30.63;;;;;;;20.60;73.74;99438.44;5091803;28;20040;-70
2021/07/15 02:35:01;;;;;;;59.85;30.83;;;;;;;20.67;73.70;99431.31;5091605;28;20036;-71
2021/07/15 02:37:33;;;;;;;63.80;32.25;;;;;;;20.74;73.55;99434.09;5100361;28;20043;-71
2021/07/15 02:39:59;;;;;;;62.55;31.15;;;;;;;20.76;73.62;99434.72;5105238;28;20392;-71
2021/07/15 02:42:26;;;;;;;61.08;32.05;;;;;;;20.73;73.94;99438.63;5114650;28;20039;-71
2021/07/15 02:44:53;;;;;;;71.13;34.08;;;;;;;20.74;74.22;99432.25;5115670;28;20135;-72
2021/07/15 02:47:19;;;;;;;66.70;32.75;;;;;;;20.75;74.20;99431.22;5115732;28;20162;-71
2021/07/15 02:49:45;;;;;;;57.28;32.90;;;;;;;20.78;74.13;99432.69;5115540;28;20134;-69
2021/07/15 02:52:11;;;;;;;57.60;33.20;;;;;;;20.80;74.24;99444.91;5115339;28;20043;-72
2021/07/15 02:54:39;;;;;;;58.70;33.20;;;;;;;20.84;74.10;99454.25;5115378;28;20669;-69
2021/07/15 02:57:31;;;;;;;59.03;32.38;;;;;;;20.87;74.30;99441.47;5110062;28;20040;-72
2021/07/15 03:00:08;;;;;;;56.80;31.60;;;;;;;20.90;74.06;99441.06;5073899;28;20088;-74
2021/07/15 03:02:44;;;;;;;59.80;33.38;;;;;;;20.94;74.19;99437.00;5106617;28;20036;-71
2021/07/15 03:05:12;;;;;;;65.47;34.13;;;;;;;20.98;73.84;99439.09;5112178;28;20096;-72
2021/07/15 03:07:46;;;;;;;65.60;34.30;;;;;;;21.02;73.92;99434.16;5109438;28;20046;-72
2021/07/15 03:10:12;;;;;;;59.80;34.05;;;;;;;21.08;73.86;99436.06;5113533;28;20055;-72
2021/07/15 03:12:39;;;;;;;62.22;35.13;;;;;;;21.12;73.61;99432.00;5115231;28;20046;-69
2021/07/15 03:15:06;;;;;;;67.35;35.17;;;;;;;21.23;73.20;99435.19;5115255;28;20055;-74
2021/07/15 03:17:36;;;;;;;62.70;34.80;;;;;;;;;;5115151;28;20050;-71
2021/07/15 03:20:07;;;;;;;63.85;34.50;;;;;;;21.36;72.69;99435.28;5114592;28;20294;-70
2021/07/15 03:22:35;;;;;;;60.25;35.20;;;;;;;21.45;72.47;99436.81;5115267;28;20063;-73
2021/07/15 03:25:05;;;;;;;66.50;32.58;;;;;;;21.52;71.97;99436.03;5096311;28;20039;-71
2021/07/15 03:27:35;;;;;;;60.25;34.78;;;;;;;21.58;71.66;99435.28;5114570;28;20173;-72
2021/07/15 03:30:05;;;;;;;60.05;32.90;;;;;;;21.64;71.83;99439.88;5096619;28;20035;-71
2021/07/15 03:32:31;;;;;;;59.33;32.45;;;;;;;21.75;71.46;99447.41;5095959;28;20066;-69
2021/07/15 03:34:57;;;;;;;63.17;34.40;;;;;;;21.86;71.05;99450.56;5114217;28;20527;-74
2021/07/15 03:37:23;;;;;;;63.85;32.72;;;;;;;21.94;70.61;99445.88;5097186;28;20036;-71
2021/07/15 03:39:50;;;;;;;59.90;32.00;;;;;;;22.04;70.67;99441.97;5114246;28;20138;-70
2021/07/15 03:42:16;;;;;;;58.43;31.20;;;;;;;22.14;70.30;99453.22;5102971;28;20046;-72
2021/07/15 03:44:43;;;;;;;60.28;33.35;;;;;;;22.23;69.65;99457.41;5096629;28;20078;-70
2021/07/15 03:47:10;;;;;;;51.38;30.48;;;;;;;22.36;69.62;99453.94;5099410;28;20056;-74
2021/07/15 03:49:36;;;;;;;58.33;31.75;;;;;;;22.45;69.16;99454.63;5113166;28;20049;-73
2021/07/15 03:52:02;;;;;;;50.20;29.25;;;;;;;22.55;68.75;99451.56;5112878;28;20118;-72
2021/07/15 03:54:28;;;;;;;49.17;29.85;;;;;;;22.61;68.58;99448.88;5114121;28;20040;-70
2021/07/15 03:56:54;;;;;;;45.22;28.48;;;;;;;22.72;68.43;99463.63;5112805;28;20125;-72
2021/07/15 03:59:21;;;;;;;46.20;28.83;;;;;;;22.89;67.49;99460.56;5110442;28;20044;-72
2021/07/15 04:01:57;;;;;;;53.15;30.33;;;;;;;23.05;66.70;99460.19;5111758;28;20058;-72
2021/07/15 04:04:25;;;;;;;51.72;29.77;;;;;;;23.17;66.21;99451.50;5106959;28;20055;-74
2021/07/15 04:06:51;;;;;;;53.47;28.95;;;;;;;23.53;65.61;99466.47;5087710;28;20040;-73
2021/07/15 04:09:17;;;;;;;47.67;28.70;;;;;;;24.91;61.65;99450.25;5095216;28;20504;-73
2021/07/15 04:11:45;;;;;;;52.95;29.50;;;;;;;24.73;60.58;99451.00;5113865;28;20038;-72
2021/07/15 04:14:15;;;;;;;45.40;28.38;;;;;;;24.57;61.12;99450.41;5095945;28;20039;-73
2021/07/15 04:17:04;;;;;;;66.05;43.85;;;;;;;24.42;61.47;99452.56;5095951;28;20100;-73
2021/07/15 04:19:30;;;;;;;43.20;27.10;;;;;;;24.33;61.34;99455.50;5113981;28;20044;-73
2021/07/15 04:21:56;;;;;;;49.05;29.13;;;;;;;24.33;61.43;99444.69;5113646;28;20048;-74
2021/07/15 04:24:23;;;;;;;48.08;28.30;;;;;;;24.44;61.34;99445.06;5095269;28;20032;-74
2021/07/15 04:26:50;;;;;;;49.30;28.20;;;;;;;25.04;60.14;99450.97;5113472;28;20051;-76
2021/07/15 04:29:17;;;;;;;50.90;27.95;;;;;;;25.23;59.28;99448.34;5113441;28;20063;-73
2021/07/15 04:31:58;;;;;;;46.28;27.65;;;;;;;26.72;55.51;99443.06;5113356;28;20135;-74
2021/07/15 04:34:29;;;;;;;45.55;26.73;;;;;;;27.88;52.16;99434.50;5113288;28;20389;-73
2021/07/15 04:36:56;;;;;;;47.35;27.98;;;;;;;27.63;52.83;99432.03;5095260;28;20099;-73
2021/07/15 04:39:26;;;;;;;45.60;27.88;;;;;;;27.70;52.74;99427.31;5094933;28;20085;-73
2021/07/15 04:41:54;;;;;;;50.00;26.70;;;;;;;28.82;49.58;99418.97;5095527;28;20042;-73
2021/07/15 04:44:20;;;;;;;41.83;24.92;;;;;;;30.01;46.18;99420.84;5095035;28;20043;-72
2021/07/15 04:46:47;;;;;;;43.40;24.55;;;;;;;30.95;44.21;99431.69;5078887;28;20047;-73
2021/07/15 04:49:13;;;;;;;41.85;24.08;;;;;;;31.85;42.22;99435.66;5095029;28;20039;-74
2021/07/15 04:51:43;;;;;;;35.70;23.42;;;;;;;32.36;40.30;99429.59;5113412;28;20070;-72
2021/07/15 04:54:09;;;;;;;36.58;23.63;;;;;;;32.51;39.28;99431.56;5077925;28;20039;-74
2021/07/15 04:56:35;;;;;;;31.57;23.17;;;;;;;33.33;37.67;99426.19;5113555;28;20044;-73
2021/07/15 04:59:03;;;;;;;33.70;23.23;;;;;;;33.76;35.92;99419.53;5095611;28;20039;-74
2021/07/15 05:01:29;;;;;;;32.08;21.88;;;;;;;33.94;36.65;99418.94;5113003;28;20051;-73
2021/07/15 05:03:55;;;;;;;34.43;22.63;;;;;;;34.02;35.78;99415.63;5095524;28;20042;-75
2021/07/15 05:06:22;;;;;;;34.43;21.67;;;;;;;34.55;34.63;99411.53;5113728;28;20285;-72
2021/07/15 05:08:48;;;;;;;33.80;20.75;;;;;;;35.71;32.64;99408.38;5095198;28;20134;-77
2021/07/15 05:11:15;;;;;;;32.28;20.70;;;;;;;35.93;32.01;99405.94;5113122;28;20373;-74
2021/07/15 05:13:40;;;;;;;28.05;19.83;;;;;;;36.10;31.91;99404.63;5113280;28;20044;-72
2021/07/15 05:16:06;;;;;;;30.30;19.97;;;;;;;36.87;30.41;99406.28;5112834;28;20089;-75
2021/07/15 05:18:34;;;;;;;28.05;20.05;;;;;;;37.77;28.71;99402.47;5112536;28;20050;-72
2021/07/15 05:21:00;;;;;;;29.27;19.45;;;;;;;38.29;28.38;99401.47;5077193;28;20146;-73
2021/07/15 05:23:25;;;;;;;26.80;20.67;;;;;;;38.49;28.06;99402.94;5112649;28;20122;-75
2021/07/15 05:25:53;;;;;;;32.35;20.27;;;;;;;38.82;27.35;99398.03;5094859;28;20575;-73
2021/07/15 05:28:20;;;;;;;29.52;19.65;;;;;;;38.92;26.87;99402.50;5094743;28;20074;-72
2021/07/15 05:30:46;;;;;;;27.95;19.00;;;;;;;38.95;26.49;99398.28;5112949;28;20055;-72
2021/07/15 05:33:11;;;;;;;29.52;20.38;;;;;;;38.65;26.74;99395.13;5112278;28;20122;-73
2021/07/15 05:35:39;;;;;;;27.75;19.55;;;;;;;38.97;27.00;99396.03;5094487;28;20050;-73
2021/07/15 05:38:05;;;;;;;32.15;20.00;;;;;;;39.38;26.22;99400.50;5112265;28;20116;-75
2021/07/15 05:40:32;;;;;;;34.85;21.52;;;;;;;39.37;26.23;99392.50;5112098;28;20143;-71
2021/07/15 05:42:57;;;;;;;33.75;20.83;;;;;;;39.41;25.95;99393.50;5094052;28;20464;-72
2021/07/15 05:45:23;;;;;;;34.65;21.27;;;;;;;39.90;25.40;99399.06;5093932;28;20093;-74
2021/07/15 05:47:49;;;;;;;34.47;20.63;;;;;;;40.60;24.79;99393.66;5111330;28;20043;-73
2021/07/15 05:50:15;;;;;;;36.00;20.88;;;;;;;40.98;24.06;99401.28;5093475;28;20542;-74
2021/07/15 05:52:41;;;;;;;;;;;;;;;41.11;24.39;99404.22;5094202;28;20127;-73
2021/07/15 05:55:07;;;;;;;37.25;22.95;;;;;;;40.95;24.42;99399.16;5112135;28;20336;-76
2021/07/15 05:57:34;;;;;;;32.05;20.40;;;;;;;41.16;23.99;99399.28;5112008;28;20035;-73
2021/07/15 06:00:00;;;;;;;34.28;18.88;;;;;;;41.20;24.02;99396.66;5112441;28;20409;-74
2021/07/15 06:02:26;;;;;;;39.65;21.35;;;;;;;41.24;23.86;99400.44;5112340;28;20044;-74
2021/07/15 06:04:52;;;;;;;32.53;19.80;;;;;;;41.46;23.46;99399.38;5111968;28;20047;-74
2021/07/15 06:07:18;;;;;;;30.73;20.88;;;;;;;41.64;23.25;99396.53;5111750;28;20039;-75
2021/07/15 06:09:43;;;;;;;36.13;21.02;;;;;;;41.03;23.88;99392.81;5112212;28;20484;-76
2021/07/15 06:12:10;;;;;;;38.50;21.90;;;;;;;42.12;22.79;99381.38;5113696;28;20429;-75
2021/07/15 06:14:36;;;;;;;31.98;20.35;;;;;;;43.00;21.89;99384.25;5116856;28;20048;-75
2021/07/15 06:17:02;;;;;;;;;;;;;;;43.06;21.25;99381.22;5116838;28;20035;-75
2021/07/15 06:19:27;;;;;;;37.42;22.75;;;;;;;42.97;21.20;99378.53;5097881;28;19919;-73
2021/07/15 06:21:53;;;;;;;;;;;;;;;43.76;20.61;99372.06;5081623;28;20488;-76
2021/07/15 06:24:19;;;;;;;29.92;20.20;;;;;;;44.60;19.99;99373.38;5116510;28;19919;-75
2021/07/15 06:26:47;;;;;;;;;;;;;;;44.70;19.54;99372.88;5116742;28;20043;-74
2021/07/15 06:29:13;;;;;;;33.65;21.73;;;;;;;43.07;21.11;99364.22;5116178;28;19968;-80
2021/07/15 06:31:39;;;;;;;36.58;20.98;;;;;;;43.47;21.03;99371.91;5116237;28;20131;-76
2021/07/15 06:34:05;;;;;;;38.55;22.23;;;;;;;43.68;20.64;99364.63;5097485;28;20135;-75
2021/07/15 06:36:31;;;;;;;;;;;;;;;43.92;20.50;99367.38;5116791;28;20092;-75
2021/07/15 06:38:58;;;;;;;36.67;21.30;;;;;;;44.08;20.41;99353.56;5115344;28;19935;-75
2021/07/15 06:41:24;;;;;;;36.38;21.35;;;;;;;44.03;20.49;99372.50;5116335;28;20040;-76
2021/07/15 06:43:50;;;;;;;37.05;20.02;;;;;;;44.03;20.48;99367.75;5116326;28;20131;-76
2021/07/15 06:46:16;;;;;;;35.40;19.13;;;;;;;43.87;20.57;99364.00;5097580;28;20469;-78
2021/07/15 06:48:42;;;;;;;39.05;21.35;;;;;;;43.74;20.51;99358.50;5115688;28;20122;-77
2021/07/15 06:51:08;;;;;;;38.83;21.27;;;;;;;42.83;21.88;99359.38;5097687;28;20508;-75
2021/07/15 06:53:34;;;;;;;37.10;20.63;;;;;;;43.17;21.33;99360.19;5115617;28;20039;-77
2021/07/15 06:56:00;;;;;;;36.35;21.15;;;;;;;42.51;21.64;99362.63;5115898;28;20475;-75
2021/07/15 06:58:27;;;;;;;26.35;17.45;;;;;;;42.49;21.42;99358.56;5116083;28;20090;-77
2021/07/15 07:00:56;;;;;;;23.27;18.55;;;;;;;43.00;21.28;99356.41;5115814;28;20541;-75
2021/07/15 07:03:23;;;;;;;32.22;18.13;;;;;;;42.61;21.56;99355.81;5115458;28;20055;-74
2021/07/15 07:05:52;;;;;;;26.90;18.48;;;;;;;42.85;21.23;99359.88;5115235;28;20044;-76
2021/07/15 07:08:18;;;;;;;25.92;18.23;;;;;;;43.45;20.41;99356.72;5097327;28;20060;-75
2021/07/15 07:10:44;;;;;;;23.85;17.23;;;;;;;43.60;20.70;99358.03;5115799;28;20099;-78
2021/07/15 07:13:09;;;;;;;26.73;18.00;;;;;;;43.10;21.16;99365.50;5115267;28;20047;-76
2021/07/15 07:15:35;;;;;;;21.30;18.00;;;;;;;42.08;21.98;99362.97;5115693;28;20047;-76
2021/07/15 07:18:01;;;;;;;22.85;16.88;;;;;;;44.30;19.85;99353.38;5115392;28;20035;-75
2021/07/15 07:20:27;;;;;;;24.80;16.88;;;;;;;45.59;18.65;99355.22;5115627;28;20035;-79
2021/07/15 07:22:52;;;;;;;22.30;16.42;;;;;;;45.86;18.38;99354.28;5115377;28;20492;-77
2021/07/15 07:25:19;;;;;;;21.85;16.65;;;;;;;45.54;18.27;99354.34;5114512;28;20046;-74
2021/07/15 07:27:45;;;;;;;21.83;16.27;;;;;;;45.00;18.90;99360.50;5115450;28;20524;-75
2021/07/15 07:30:14;;;;;;;20.02;14.88;;;;;;;44.88;18.72;99353.03;5115234;28;20123;-75
2021/07/15 07:32:41;;;;;;;24.10;15.55;;;;;;;45.38;18.47;99357.13;5096728;28;20048;-75
2021/07/15 07:35:10;;;;;;;22.27;15.05;;;;;;;44.62;18.60;99347.91;5096819;28;20411;-78
2021/07/15 07:37:36;;;;;;;19.40;14.75;;;;;;;44.84;18.41;99350.16;5114864;28;20396;-77
2021/07/15 07:40:04;;;;;;;22.65;15.55;;;;;;;44.61;19.00;99347.09;5114410;28;20093;-76
2021/07/15 07:42:30;;;;;;;17.17;14.10;;;;;;;44.02;18.87;99348.56;5114534;28;20416;-76
2021/07/15 07:44:56;;;;;;;15.32;13.73;;;;;;;44.16;18.54;99346.22;5114333;28;20043;-76
2021/07/15 07:47:21;;;;;;;13.98;12.57;;;;;;;44.51;18.23;99337.25;5114578;28;20123;-75
2021/07/15 07:49:47;;;;;;;18.92;13.63;;;;;;;45.00;17.53;99347.38;5096387;28;20048;-76
2021/07/15 07:52:13;;;;;;;14.50;12.55;;;;;;;44.52;17.82;99338.91;5114745;28;20046;-76
2021/07/15 07:54:39;;;;;;;19.50;11.57;;;;;;;45.29;17.09;99336.94;5079510;28;20035;-80
2021/07/15 07:57:05;;;;;;;14.25;12.02;;;;;;;46.10;16.08;99341.22;5114777;28;20062;-76
2021/07/15 07:59:31;;;;;;;17.65;12.48;;;;;;;46.11;16.53;99331.66;5114225;28;20047;-75
2021/07/15 08:01:56;;;;;;;18.98;13.82;;;;;;;44.43;18.06;99332.69;5114358;28;20050;-75
2021/07/15 08:04:22;;;;;;;20.92;13.25;;;;;;;44.49;18.15;99336.84;5114200;28;20039;-74
2021/07/15 08:06:49;;;;;;;20.30;12.82;;;;;;;45.13;17.25;99325.75;5114386;28;20460;-77
2021/07/15 08:09:16;;;;;;;14.15;12.32;;;;;;;44.33;18.56;99324.78;5113875;28;20138;-78
2021/07/15 08:11:48;;;;;;;19.17;13.48;;;;;;;44.59;18.28;99321.53;5096010;28;20062;-75
2021/07/15 08:14:14;;;;;;;19.52;12.80;;;;;;;45.55;17.38;99316.84;5079746;28;20031;-75
2021/07/15 08:16:40;;;;;;;19.33;13.25;;;;;;;45.98;16.92;99324.59;5113780;28;20567;-75
2021/07/15 08:19:06;;;;;;;17.90;13.23;;;;;;;44.28;17.98;99326.66;5113933;28;20122;-78
2021/07/15 08:21:32;;;;;;;16.73;13.07;;;;;;;44.89;17.38;99324.75;5114126;28;20131;-76
2021/07/15 08:23:58;;;;;;;21.98;14.43;;;;;;;44.07;18.38;99317.69;5113676;28;20069;-77
2021/07/15 08:26:24;;;;;;;18.42;13.65;;;;;;;44.77;18.16;99316.47;5113797;28;20044;-76
2021/07/15 08:28:50;;;;;;;17.40;12.23;;;;;;;44.13;18.31;99323.81;5078782;28;20047;-77
2021/07/15 08:31:16;;;;;;;19.05;13.32;;;;;;;44.71;17.50;99315.88;5113389;28;20050;-76
2021/07/15 08:33:42;;;;;;;19.60;12.65;;;;;;;45.18;16.86;99324.72;5113521;28;20492;-78
2021/07/15 08:36:09;;;;;;;16.95;13.45;;;;;;;45.14;17.13;99324.63;5112580;28;20054;-77
2021/07/15 08:38:36;;;;;;;19.20;12.80;;;;;;;46.59;15.70;99314.63;5113313;28;20047;-80
2021/07/15 08:41:02;;;;;;;43.58;27.88;;;;;;;45.16;17.09;99319.47;5095398;28;20050;-77
2021/07/15 08:43:29;;;;;;;16.38;12.57;;;;;;;45.17;16.98;99314.72;5113856;28;20043;-75
2021/07/15 08:45:57;;;;;;;20.77;12.60;;;;;;;43.88;18.14;99309.91;5095373;28;20045;-74
2021/07/15 08:48:24;;;;;;;17.95;12.75;;;;;;;43.99;18.09;99301.91;5113623;28;20126;-77
2021/07/15 08:50:51;;;;;;;18.20;11.82;;;;;;;43.80;18.08;99292.16;5095278;28;20429;-76
2021/07/15 08:53:20;;;;;;;14.93;12.07;;;;;;;44.24;17.59;99297.03;5113348;28;20039;-81
2021/07/15 08:58:14;;;;;;;13.48;11.00;;;;;;;47.03;15.14;99290.22;5078194;28;20040;-78
2021/07/15 09:00:40;;;;;;;26.00;15.82;;;;;;;47.92;14.50;99287.97;5113120;28;20549;-76
2021/07/15 09:03:06;;;;;;;17.30;13.13;;;;;;;48.15;14.33;99281.41;5094565;28;20050;-74
2021/07/15 09:05:32;;;;;;;24.65;18.05;;;;;;;47.37;15.22;99285.56;5113495;28;20092;-78
2021/07/15 09:08:02;;;;;;;13.63;12.13;;;;;;;47.10;15.09;99285.56;5113121;28;20047;-76
2021/07/15 09:10:29;;;;;;;15.95;11.15;;;;;;;47.76;15.12;99276.91;5077929;28;20385;-72
2021/07/15 09:12:59;;;;;;;15.95;11.00;;;;;;;48.41;14.33;99272.09;5077999;28;20121;-76
2021/07/15 09:15:26;;;;;;;14.05;12.07;;;;;;;48.01;14.54;99272.84;5094803;28;20150;-75
2021/07/15 09:17:52;;;;;;;14.40;11.70;;;;;;;47.32;15.18;99263.47;5094658;28;20495;-73
2021/07/15 09:20:23;;;;;;;17.40;12.38;;;;;;;45.92;15.83;99259.75;5113085;28;20396;-76
2021/07/15 09:23:04;;;;;;;14.40;12.32;;;;;;;45.33;16.93;99261.63;5094759;28;20066;-77
2021/07/15 09:25:41;;;;;;;14.13;12.68;;;;;;;44.61;17.30;99257.03;5112852;28;20232;-76
2021/07/15 09:28:09;;;;;;;18.90;13.38;;;;;;;44.27;17.68;99241.38;5112572;28;20130;-75
2021/07/15 09:30:36;;;;;;;15.77;12.73;;;;;;;43.10;18.67;99243.00;5112781;28;20511;-75
2021/07/15 09:33:10;;;;;;;17.02;12.85;;;;;;;44.06;18.11;99233.22;5077535;28;20079;-77
2021/07/15 09:35:38;;;;;;;14.48;11.68;;;;;;;45.38;17.19;99227.81;5112748;28;20042;-77
2021/07/15 09:38:11;;;;;;;15.98;13.02;;;;;;;44.91;16.86;99230.31;5112234;28;20044;-75
2021/07/15 09:40:59;;;;;;;14.05;11.15;;;;;;;43.90;17.76;99219.22;5112758;28;20476;-73
2021/07/15 09:43:25;;;;;;;14.65;11.75;;;;;;;43.79;17.87;99212.53;5094142;28;20040;-75
2021/07/15 09:45:55;;;;;;;16.85;12.32;;;;;;;43.25;18.34;99211.69;5112711;28;20045;-76
2021/07/15 09:48:25;;;;;;;17.77;12.15;;;;;;;43.69;17.79;99213.84;5112384;28;20051;-76
2021/07/15 09:50:53;;;;;;;16.85;11.27;;;;;;;44.40;17.40;99219.03;5095419;28;20507;-76
2021/07/15 09:53:22;;;;;;;14.10;11.50;;;;;;;45.07;16.59;99223.91;5094335;28;20044;-77
2021/07/15 09:55:59;;;;;;;13.35;12.05;;;;;;;43.75;17.41;99222.75;5112656;28;20496;-76
2021/07/15 09:58:26;;;;;;;13.15;11.85;;;;;;;42.88;18.52;99210.91;5112472;28;20389;-75
2021/07/15 10:01:02;;;;;;;12.63;11.07;;;;;;;42.97;18.59;99209.63;5094572;28;20063;-79
2021/07/15 10:03:33;;;;;;;12.48;11.15;;;;;;;43.07;18.50;99207.50;5101965;28;20401;-77
2021/07/15 10:06:02;;;;;;;19.10;11.43;;;;;;;42.50;18.77;99210.03;5091958;28;20416;-74
2021/07/15 10:08:29;;;;;;;16.48;13.93;;;;;;;40.80;20.65;99203.56;5091376;28;20515;-75
2021/07/15 10:11:16;;;;;;;16.27;11.77;;;;;;;39.34;22.12;99205.78;5092364;28;20059;-77
2021/07/15 10:13:43;;;;;;;15.85;11.82;;;;;;;38.22;23.65;99202.16;5092324;28;20134;-74
2021/07/15 10:16:10;;;;;;;16.52;12.00;;;;;;;37.60;24.82;99206.34;5091995;28;20043;-75
2021/07/15 10:18:39;;;;;;;16.65;12.55;;;;;;;36.97;25.62;99203.25;5091950;28;20047;-76
2021/07/15 10:21:08;;;;;;;15.65;12.55;;;;;;;36.50;26.63;99206.84;5091973;28;20100;-76
2021/07/15 10:23:39;;;;;;;17.65;12.75;;;;;;;36.00;26.76;99212.84;5091729;28;20130;-77
2021/07/15 10:26:07;;;;;;;21.23;14.50;;;;;;;35.92;27.68;99217.13;5091909;28;20040;-77
2021/07/15 10:28:34;;;;;;;17.85;13.63;;;;;;;35.66;28.30;99224.09;5091708;28;20416;-74
2021/07/15 10:31:04;;;;;;;22.90;17.63;;;;;;;35.22;29.57;99232.31;5090594;28;20043;-75
2021/07/15 10:33:30;;;;;;;44.92;15.60;;;;;;;34.55;30.69;99243.97;5091598;28;20051;-74
2021/07/15 10:35:58;;;;;;;54.45;12.07;;;;;;;33.50;32.06;99244.09;5091425;28;20040;-75
2021/07/15 10:38:27;;;;;;;47.50;11.45;;;;;;;32.88;34.02;99249.75;5091567;28;20039;-76
2021/07/15 10:40:56;;;;;;;35.90;10.05;;;;;;;32.65;33.52;99251.13;5090307;28;20493;-75
2021/07/15 10:43:22;;;;;;;39.92;9.63;;;;;;;32.68;33.75;99245.09;5091294;28;20036;-74
2021/07/15 10:45:48;;;;;;;27.17;8.87;;;;;;;32.71;33.55;99239.91;5091670;28;20477;-77
2021/07/15 10:48:15;;;;;;;22.77;7.87;;;;;;;32.65;33.22;99241.00;5090203;28;20515;-77
2021/07/15 10:50:41;;;;;;;;;;;;;;;32.48;33.47;99251.41;5091028;28;20058;-76
2021/07/15 10:53:07;;;;;;;22.67;8.23;;;;;;;32.26;34.04;99255.22;5057508;28;20011;-76
2021/07/15 10:55:33;;;;;;;26.23;8.88;;;;;;;32.11;34.88;99247.78;5090400;28;20032;-75
2021/07/15 10:57:59;;;;;;;21.52;7.85;;;;;;;32.02;34.82;99250.25;5091788;28;20051;-76
2021/07/15 11:00:30;;;;;;;20.13;7.43;;;;;;;31.45;35.49;99276.56;5093320;28;20048;-77
2021/07/15 11:03:17;;;;;;;18.90;7.05;;;;;;;31.14;35.94;99290.91;5095394;28;20048;-75
2021/07/15 11:05:49;;;;;;;17.17;6.93;;;;;;;31.11;35.55;99287.88;5077253;28;20071;-78
2021/07/15 11:08:16;;;;;;;16.85;7.18;;;;;;;30.77;36.06;99280.81;5094727;28;20488;-74
2021/07/15 11:10:41;;;;;;;;;;;;;;;30.54;36.01;99281.16;5094453;28;20488;-77
2021/07/15 11:13:09;;;;;;;18.63;7.20;;;;;;;30.43;36.07;99278.31;5094882;28;19932;-73
2021/07/15 11:15:43;;;;;;;;;;;;;;;30.01;36.49;99290.72;5095225;28;20327;-76
2021/07/15 11:18:09;;;;;;;14.85;6.03;;;;;;;29.89;36.38;99278.31;5094659;28;19946;-74
2021/07/15 11:20:36;;;;;;;18.00;6.65;;;;;;;29.52;37.19;99272.44;5076279;28;20043;-77
2021/07/15 11:23:07;;;;;;;14.32;6.72;;;;;;;29.58;37.46;99284.22;5094924;28;20083;-75
2021/07/15 11:25:41;;;;;;;20.92;7.50;;;;;;;29.48;37.54;99309.41;5094486;28;20032;-73
2021/07/15 11:28:14;;;;;;;17.75;7.25;;;;;;;29.45;38.24;99326.28;5095047;28;20052;-73